Time;durP1;ratioP1;P1;durP2;ratioP2;P2;SDS_P1;SDS_P2;PMS_P1;PMS_P2;Temp;Humidity;BMP_temperature;BMP_pressure;BME280_temperature;BME280_humidity;BME280_pressure;Samples;Min_cycle;Max_cycle;Signal;HPM_P1;HPM_P2
2022/06/03 09:38:24;;;;;;;13.82;2.30;;;;;;;;;;5110293;27;20621;-55
2022/06/03 09:50:36;;;;;;;6.47;2.25;;;;;;;;;;4941760;28;62493;-63
2022/06/03 09:53:05;;;;;;;9.50;2.95;;;;;;;;;;4898333;28;78031;-63
2022/06/03 09:55:31;;;;;;;8.38;2.55;;;;;;;;;;5024897;28;20053;-64
2022/06/03 09:57:59;;;;;;;13.00;2.85;;;;;;;;;;5015660;28;20037;-60
2022/06/03 10:00:27;;;;;;;9.93;2.45;;;;;;;;;;5016882;28;20489;-62
2022/06/03 10:02:53;;;;;;;19.15;3.25;;;;;;;;;;5018852;28;20022;-62
2022/06/03 10:05:20;;;;;;;14.48;2.53;;;;;;;;;;5019296;28;20032;-62
2022/06/03 10:07:47;;;;;;;10.50;2.57;;;;;;;;;;5018551;28;20053;-62
2022/06/03 10:13:05;;;;;;;12.00;2.80;;;;;;;;;;5016372;28;20037;-64
2022/06/03 10:13:31;;;;;;;9.80;2.60;;;;;;;;;;5018487;28;20030;-62
2022/06/03 10:15:43;;;;;;;12.38;2.60;;;;;;;;;;5016423;28;20115;-61
2022/06/03 10:18:16;;;;;;;9.52;2.30;;;;;;;;;;5016373;28;20494;-65
2022/06/03 10:20:43;;;;;;;8.40;2.55;;;;;;;;;;5018007;28;20060;-62
2022/06/03 10:23:10;;;;;;;8.65;2.72;;;;;;;;;;5016709;28;20541;-61
2022/06/03 10:25:38;;;;;;;13.35;2.97;;;;;;;;;;5016995;28;20355;-62
2022/06/03 10:28:06;;;;;;;9.65;2.70;;;;;;;;;;5016266;28;20478;-62
2022/06/03 10:30:33;;;;;;;13.82;2.60;;;;;;;;;;5015794;28;20030;-63
2022/06/03 10:32:59;;;;;;;9.75;2.63;;;;;;;;;;5015545;28;20116;-62
2022/06/03 10:35:28;;;;;;;6.05;2.30;;;;;;;;;;5015731;28;20581;-65
2022/06/03 10:37:55;;;;;;;11.30;2.60;;;;;;;;;;5015079;28;20454;-64
2022/06/03 10:40:24;;;;;;;8.68;2.67;;;;;;;;;;5016384;28;20030;-67
2022/06/03 10:42:54;;;;;;;11.77;2.95;;;;;;;;;;5013742;28;20394;-65
2022/06/03 10:45:26;;;;;;;10.25;2.53;;;;;;;;;;5013340;28;20375;-69
2022/06/03 10:47:52;;;;;;;7.25;2.60;;;;;;;;;;5014118;28;20538;-68
2022/06/03 10:50:28;;;;;;;4.20;2.22;;;;;;;;;;5014635;28;20045;-64
2022/06/03 11:01:46;;;;;;;7.85;2.13;;;;;;;;;;4916640;29;20040;-65
2022/06/03 11:02:09;;;;;;;5.88;2.35;;;;;;;;;;4992311;28;20122;-66
2022/06/03 11:02:36;;;;;;;12.52;2.65;;;;;;;;;;5013138;28;20049;-67
2022/06/03 11:04:12;;;;;;;;;;;;;;;;;;4974706;28;20058;-66
2022/06/03 11:06:06;;;;;;;10.18;2.85;;;;;;;;;;5014611;28;20021;-66
2022/06/03 11:06:39;;;;;;;8.40;2.63;;;;;;;;;;4993744;28;19905;-66
2022/06/03 11:09:07;;;;;;;5.80;2.50;;;;;;;;;;5002564;28;20057;-66
2022/06/03 11:11:33;;;;;;;6.65;1.92;;;;;;;;;;4993865;28;20018;-66
2022/06/03 11:14:19;;;;;;;5.22;1.92;;;;;;;;;;4995554;28;20050;-63
2022/06/03 11:16:50;;;;;;;6.65;1.92;;;;;;;;;;5000060;28;20018;-62
2022/06/03 11:19:17;;;;;;;4.07;2.08;;;;;;;;;;5008657;28;20026;-62
2022/06/03 11:21:43;;;;;;;4.47;1.90;;;;;;;;;;5003751;28;20387;-62
2022/06/03 11:24:09;;;;;;;3.15;1.63;;;;;;;;;;5008340;28;20057;-64
2022/06/03 11:26:37;;;;;;;9.27;2.03;;;;;;;;;;4996439;28;20133;-62
2022/06/03 11:29:16;;;;;;;9.05;2.10;;;;;;;;;;4994476;28;20026;-63
2022/06/03 11:31:44;;;;;;;3.42;1.77;;;;;;;;;;5000210;28;20029;-63
2022/06/03 11:34:14;;;;;;;3.10;1.77;;;;;;;;;;5007588;28;20378;-63
2022/06/03 11:36:42;;;;;;;6.53;2.17;;;;;;;;;;4997273;28;20176;-61
2022/06/03 11:39:13;;;;;;;3.05;1.80;;;;;;;;;;5009342;28;20024;-66
2022/06/03 11:41:41;;;;;;;2.33;1.90;;;;;;;;;;5003468;28;20034;-63
2022/06/03 11:44:12;;;;;;;3.67;1.58;;;;;;;;;;5001460;28;20106;-63
2022/06/03 11:46:43;;;;;;;5.32;1.52;;;;;;;;;;5010565;28;20049;-63
2022/06/03 11:49:09;;;;;;;3.75;1.60;;;;;;;;;;4993977;28;20319;-63
2022/06/03 11:51:36;;;;;;;3.10;1.83;;;;;;;;;;5002459;28;20423;-62
2022/06/03 11:54:03;;;;;;;5.43;1.50;;;;;;;;;;5000673;28;20057;-63
2022/06/03 11:56:31;;;;;;;5.93;1.85;;;;;;;;;;4992470;28;20030;-63
2022/06/03 11:58:57;;;;;;;2.63;1.52;;;;;;;;;;4990959;28;20053;-65
2022/06/03 12:01:30;;;;;;;6.15;1.58;;;;;;;;;;4999654;28;20087;-68
2022/06/03 12:03:56;;;;;;;4.75;1.88;;;;;;;;;;4999435;28;20027;-63
2022/06/03 12:06:27;;;;;;;4.63;2.00;;;;;;;;;;5001759;28;20448;-61
2022/06/03 12:09:13;;;;;;;4.10;2.20;;;;;;;;;;5000562;28;20022;-61
2022/06/03 12:13:15;;;;;;;9.88;2.53;;;;;;;;;;5003705;28;20141;-65
2022/06/03 12:14:30;;;;;;;3.80;2.13;;;;;;;;;;5015873;28;20034;-62
2022/06/03 12:17:01;;;;;;;2.30;1.80;;;;;;;;;;5001921;28;20042;-61
2022/06/03 12:19:47;;;;;;;6.78;2.05;;;;;;;;;;5001291;28;20113;-62
2022/06/03 12:22:33;;;;;;;7.32;2.20;;;;;;;;;;5001006;28;20052;-63
2022/06/03 12:25:01;;;;;;;9.75;2.00;;;;;;;;;;5001110;28;20038;-61
2022/06/03 12:27:28;;;;;;;6.45;2.72;;;;;;;;;;5000572;28;20104;-64
2022/06/03 12:30:17;;;;;;;7.07;2.60;;;;;;;;;;4994509;28;76400;-68
2022/06/03 12:32:48;;;;;;;6.72;2.28;;;;;;;;;;5005823;28;20404;-63
2022/06/03 12:35:35;;;;;;;10.38;2.15;;;;;;;;;;5002217;28;20064;-64
2022/06/03 12:38:21;;;;;;;9.30;2.53;;;;;;;;;;4998643;28;20039;-65
2022/06/03 12:40:47;;;;;;;10.95;2.90;;;;;;;;;;5002882;28;20049;-63
2022/06/03 12:43:33;;;;;;;7.50;2.10;;;;;;;;;;5001993;28;20048;-68
2022/06/03 12:46:02;;;;;;;4.68;2.47;;;;;;;;;;4997725;28;20032;-68
2022/06/03 12:48:46;;;;;;;5.82;2.70;;;;;;;;;;5000838;28;20025;-63
2022/06/03 12:51:12;;;;;;;11.90;2.30;;;;;;;;;;5001928;28;20025;-66
2022/06/03 12:53:41;;;;;;;10.93;2.78;;;;;;;;;;5001474;28;20097;-65
2022/06/03 12:56:10;;;;;;;6.65;2.30;;;;;;;;;;5001846;28;20034;-66
2022/06/03 12:58:48;;;;;;;6.25;2.35;;;;;;;;;;5000677;28;20022;-65
2022/06/03 13:01:29;;;;;;;4.63;2.58;;;;;;;;;;5002181;28;20018;-63
2022/06/03 13:03:58;;;;;;;5.82;2.20;;;;;;;;;;5001755;28;20026;-65
2022/06/03 13:06:27;;;;;;;4.80;2.42;;;;;;;;;;5002045;28;20387;-64
2022/06/03 13:09:38;;;;;;;7.72;2.78;;;;;;;;;;5001315;28;20044;-66
2022/06/03 13:11:43;;;;;;;5.47;2.60;;;;;;;;;;5005199;28;20030;-68
2022/06/03 13:14:27;;;;;;;9.88;2.70;;;;;;;;;;5000854;28;20469;-66
2022/06/03 13:16:53;;;;;;;4.10;2.55;;;;;;;;;;5001342;28;20117;-63
2022/06/03 13:19:20;;;;;;;10.10;3.03;;;;;;;;;;4998721;28;20644;-63
2022/06/03 13:21:51;;;;;;;6.47;2.50;;;;;;;;;;5001395;28;20475;-64
2022/06/03 13:24:20;;;;;;;7.10;2.60;;;;;;;;;;5001631;28;20499;-63
2022/06/03 13:26:48;;;;;;;5.63;2.28;;;;;;;;;;5000657;28;20026;-63
2022/06/03 13:29:34;;;;;;;4.95;2.20;;;;;;;;;;4999894;28;20051;-62
2022/06/03 13:32:01;;;;;;;4.65;2.55;;;;;;;;;;5001100;28;20020;-63
2022/06/03 13:34:29;;;;;;;5.72;2.90;;;;;;;;;;5001602;28;20509;-66
2022/06/03 13:36:57;;;;;;;9.73;4.40;;;;;;;;;;5000053;28;20046;-64
2022/06/03 13:39:24;;;;;;;8.48;3.85;;;;;;;;;;5000430;28;20025;-64
2022/06/03 13:43:43;;;;;;;4.07;2.63;;;;;;;;;;5000439;28;20025;-65
2022/06/03 13:45:05;;;;;;;9.02;2.63;;;;;;;;;;5009040;28;20113;-64
2022/06/03 13:47:51;;;;;;;6.90;2.30;;;;;;;;;;4999735;28;20072;-65
2022/06/03 13:50:25;;;;;;;4.57;2.70;;;;;;;;;;5001373;28;20065;-65
2022/06/03 13:52:53;;;;;;;5.47;2.58;;;;;;;;;;5003123;28;20084;-64
2022/06/03 13:55:34;;;;;;;8.63;2.60;;;;;;;;;;5001942;28;20182;-63
2022/06/03 13:58:10;;;;;;;4.57;2.28;;;;;;;;;;5000631;28;20018;-59
2022/06/03 14:00:38;;;;;;;6.35;2.22;;;;;;;;;;5001797;28;20490;-62
2022/06/03 14:03:04;;;;;;;8.63;2.50;;;;;;;;;;5000097;28;20066;-61
2022/06/03 14:05:33;;;;;;;4.20;2.60;;;;;;;;;;5002555;28;20053;-62
2022/06/03 14:08:03;;;;;;;8.85;2.47;;;;;;;;;;5001199;28;20030;-61
2022/06/03 14:10:35;;;;;;;5.18;2.40;;;;;;;;;;5001327;28;20034;-65
2022/06/03 14:13:03;;;;;;;6.20;2.95;;;;;;;;;;4999100;28;20500;-63
2022/06/03 14:15:36;;;;;;;6.60;3.40;;;;;;;;;;4935037;28;87398;-63
2022/06/03 14:18:03;;;;;;;13.38;4.40;;;;;;;;;;4918204;28;84565;-67
2022/06/03 14:20:49;;;;;;;9.55;4.60;;;;;;;;;;4998676;28;20030;-65
2022/06/03 14:23:22;;;;;;;12.00;3.85;;;;;;;;;;4997042;28;20502;-68
2022/06/03 14:25:51;;;;;;;12.98;9.40;;;;;;;;;;5001074;28;20056;-67
2022/06/03 14:28:25;;;;;;;9.50;5.05;;;;;;;;;;5014035;28;20025;-64
2022/06/03 14:31:11;;;;;;;8.40;4.47;;;;;;;;;;5000523;28;20100;-63
2022/06/03 14:33:40;;;;;;;7.18;3.85;;;;;;;;;;4999786;28;20026;-67
2022/06/03 14:36:07;;;;;;;7.68;3.85;;;;;;;;;;4998403;28;20049;-68
2022/06/03 14:38:37;;;;;;;7.68;2.95;;;;;;;;;;5003572;28;20105;-65
2022/06/03 14:41:06;;;;;;;6.07;3.33;;;;;;;;;;5002443;28;20026;-65
2022/06/03 14:43:32;;;;;;;9.18;3.30;;;;;;;;;;5001807;28;20179;-64
2022/06/03 14:46:02;;;;;;;6.10;3.03;;;;;;;;;;5002290;28;20022;-64
2022/06/03 14:48:34;;;;;;;5.35;2.88;;;;;;;;;;5000847;28;20522;-68
2022/06/03 14:51:13;;;;;;;11.55;2.90;;;;;;;;;;4995380;28;20080;-66
2022/06/03 14:53:42;;;;;;;5.25;2.38;;;;;;;;;;5000288;28;20022;-57
2022/06/03 14:56:13;;;;;;;5.88;2.83;;;;;;;;;;4999895;28;20452;-62
2022/06/03 14:58:43;;;;;;;8.07;3.13;;;;;;;;;;5001531;28;20040;-67
2022/06/03 15:01:29;;;;;;;5.75;3.20;;;;;;;;;;5002597;28;20023;-66
2022/06/03 15:03:56;;;;;;;6.00;2.95;;;;;;;;;;4996752;28;20128;-67
2022/06/03 15:06:27;;;;;;;3.88;2.30;;;;;;;;;;5001055;28;20131;-65
2022/06/03 15:09:13;;;;;;;6.50;2.35;;;;;;;;;;5003826;28;20719;-64
2022/06/03 15:11:59;;;;;;;5.33;2.70;;;;;;;;;;5003737;28;20029;-64
2022/06/03 15:14:26;;;;;;;3.45;2.28;;;;;;;;;;5002729;28;20029;-61
2022/06/03 15:16:56;;;;;;;4.35;2.40;;;;;;;;;;5003753;28;20050;-63
2022/06/03 15:19:32;;;;;;;3.70;2.20;;;;;;;;;;5000551;28;20112;-65
2022/06/03 15:21:59;;;;;;;3.72;2.42;;;;;;;;;;5001825;28;20029;-66
2022/06/03 15:24:25;;;;;;;25.55;21.08;;;;;;;;;;4998538;28;20025;-63
2022/06/03 15:26:51;;;;;;;55.33;46.83;;;;;;;;;;5001449;28;20026;-64
2022/06/03 15:29:20;;;;;;;113.70;97.70;;;;;;;;;;5001251;28;20022;-64
2022/06/03 15:31:48;;;;;;;77.40;62.90;;;;;;;;;;4998277;28;20027;-61
2022/06/03 15:34:14;;;;;;;38.03;30.73;;;;;;;;;;5000397;28;20391;-62
